Shemya, AK

10:43 AM HST on January 22, 2017 (GMT -1000)
Shemya Island | | Change Station
Active Advisory: Blizzard Warning

Elev 187 ft 52.73 °N, 174.10 °E | Updated 10 minutes ago

Snow
Snow
31.3 °F
Feels Like 31 °F
N
0.0
Wind Variable Wind from North
Gusts 0.0 mph

Today
High -- | Low -- °F
--% Chance of Precip.
Yesterday
High -- | Low -- °F
Precip. -- in
Pressure 28.03 in
Visibility 4.0 miles
Clouds Mostly Cloudy 1000 ft
Overcast 2200 ft
Windchill 31 °F
Dew Point 31 °F
Humidity 98%
Rainfall 0.00 in
Snow Depth Not available.
10:20 AM 6:49 PM
Waning Crescent, 24% visible
METAR PADK 222036Z AUTO 00000KT 4SM BKN010 OVC022 04/01 A2803 RMK AO1
Pressure 28.03 in
Visibility 4.0 miles
Clouds Mostly Cloudy 1000 ft
Overcast 2200 ft
Windchill 31 °F
Dew Point 31 °F
Humidity 98%
Rainfall 0.00 in
Snow Depth Not available.
10:20 AM 6:49 PM
Waning Crescent, 24% visible
METAR PADK 222036Z AUTO 00000KT 4SM BKN010 OVC022 04/01 A2803 RMK AO1

Get Your Daily Forecast Email!

Thanks for signing up!

Be on the lookout for a verification email in your inbox.

You'll start receiving the daily forecast at 8 AM.

×

10-Day Weather Forecast

No radar image for this location.
×

Almanac

Astronomy

Jan. 22, 2017 Rise Set
Actual Time
Civil Twilight
Nautical Twilight
Astronomical Twilight
Moon
Length of Visible Light
Length of Day
Tomorrow will be .
, % of the Moon is Illuminated

Today's Extremes

State Highs State Lows

Community

WunderPhotos

Upload Photos

1,962,540 photos uploaded!

WunderBlog® & News

Nearby

Air Quality

  Air Quality AQ Index Pollutant
Not available.

Snow Depth

Station Depth Elevation

Earthquake Activity

City Distance Mag. Time & Date
Minimum magnitude displayed is 2.5.

Coastal Water Temperatures

Place Temperature

Stations

Nearby Weather Stations

Station Location Temp. Windchill Dew Point Humidity Wind Precip. Elev Updated Type
                   

Watches & Warnings

Blizzard Warning
Issued: 10:36 AM AKST Jan. 22, 2017 – National Weather Service

... Blizzard Warning remains in effect until 4 PM akst this
afternoon near Shemya...

* location... Shemya.

* Snow... additional 2 to 4 inches accumulation.

* Visibility... one quarter mile or less at times.

* Wind... northeast 40 to 55 mph with gusts to 70 mph.

* Timing... snow and strong northerly winds will continue to
bring near white-out conditions to Shemya today. Conditions
are then expected to begin to improve late this afternoon as
winds and snow diminish.

* Impacts... snowfall combined with strong winds and blowing snow
will produce white-out conditions. Traveling will be very
difficult.

Precautionary/preparedness actions...

A Blizzard Warning means severe winter weather conditions are
expected or occurring. Falling and blowing snow with strong winds
and poor visibilities are likely. This will lead to white-out
conditions... making travel very difficult. All travel and
outdoor activity is strongly discouraged.